createdAt,value
2022-10-03T00:01:28.657Z,75141.28
2022-10-03T00:04:04.876Z,75145.38
2022-10-03T00:07:11.619Z,75137.16
2022-10-03T00:09:41.126Z,75137.16
2022-10-03T00:12:08.125Z,75137.16
2022-10-03T00:14:54.858Z,75145.38
2022-10-03T00:17:25.097Z,75137.16
2022-10-03T00:19:52.504Z,75137.16
2022-10-03T00:22:26.283Z,75143.31
2022-10-03T00:25:02.660Z,75145.38
2022-10-03T00:27:33.152Z,75149.50
2022-10-03T00:30:02.492Z,75151.53
2022-10-03T00:32:31.731Z,75135.09
2022-10-03T00:35:01.406Z,75149.50
2022-10-03T00:37:38.310Z,75145.38
2022-10-03T00:40:24.478Z,75143.31
2022-10-03T00:43:10.588Z,75141.28
2022-10-03T00:45:50.698Z,75137.16
2022-10-03T00:48:26.838Z,75145.38
2022-10-03T00:51:11.968Z,75145.38
2022-10-03T00:53:39.061Z,75153.59
2022-10-03T00:56:21.754Z,75153.59
2022-10-03T00:59:02.541Z,75163.88
2022-10-03T01:01:43.457Z,75180.31
2022-10-03T01:04:13.840Z,75182.38
2022-10-03T01:06:49.307Z,75198.81
2022-10-03T01:09:19.781Z,75207.03
2022-10-03T01:11:50.947Z,75219.34
2022-10-03T01:14:18.109Z,75227.56
2022-10-03T01:16:57.283Z,75231.69
2022-10-03T01:19:30.233Z,75237.84
2022-10-03T01:22:17.586Z,75244.00
2022-10-03T01:24:50.850Z,75244.00
2022-10-03T01:27:25.499Z,75256.34
2022-10-03T01:30:16.317Z,75264.56
2022-10-03T01:33:02.984Z,75268.66
2022-10-03T01:35:40.337Z,75268.66
2022-10-03T01:38:25.361Z,75285.09
2022-10-03T01:40:55.449Z,75276.91
2022-10-03T01:43:32.337Z,75293.34
2022-10-03T01:45:59.635Z,75289.22
2022-10-03T01:48:26.646Z,75303.59
2022-10-03T01:50:59.655Z,75307.72
2022-10-03T01:53:41.117Z,75318.00
2022-10-03T01:56:27.063Z,75330.31
2022-10-03T01:58:58.203Z,75334.44
2022-10-03T02:01:54.727Z,75336.47
2022-10-03T02:04:27.763Z,75342.66
2022-10-03T02:07:06.815Z,75350.88
2022-10-03T02:09:38.653Z,75350.88
2022-10-03T02:12:14.211Z,75354.97
2022-10-03T02:15:00.762Z,75361.16
2022-10-03T02:17:42.356Z,75363.19
2022-10-03T02:20:13.924Z,75363.19
2022-10-03T02:22:45.793Z,75363.19
2022-10-03T02:25:21.045Z,75363.19
2022-10-03T02:28:06.957Z,75359.09
2022-10-03T02:30:52.608Z,75363.19
2022-10-03T02:33:38.458Z,75363.19
2022-10-03T02:36:05.483Z,75359.09
2022-10-03T02:38:51.446Z,75371.41
2022-10-03T02:41:24.373Z,75371.41
2022-10-03T02:43:51.383Z,75373.47
2022-10-03T02:46:18.461Z,75371.41
2022-10-03T02:49:04.106Z,75373.47
2022-10-03T02:51:34.030Z,75371.41
2022-10-03T02:54:13.050Z,75365.25
2022-10-03T02:57:04.729Z,75361.16
2022-10-03T02:59:39.044Z,75359.09
2022-10-03T03:02:24.861Z,75352.91
2022-10-03T03:05:10.513Z,75354.97
2022-10-03T03:07:59.188Z,75350.88
2022-10-03T03:10:44.846Z,75352.91
2022-10-03T03:13:31.114Z,75354.97
2022-10-03T03:15:58.190Z,75359.09
2022-10-03T03:18:25.304Z,75354.97
2022-10-03T03:20:55.134Z,75359.09
2022-10-03T03:23:29.364Z,75361.16
2022-10-03T03:26:08.422Z,75359.09
2022-10-03T03:28:54.890Z,75369.38
2022-10-03T03:31:34.988Z,75363.19
2022-10-03T03:34:07.650Z,75367.31
2022-10-03T03:36:41.653Z,75375.53
2022-10-03T03:39:08.932Z,75371.41
2022-10-03T03:41:36.425Z,75377.59
2022-10-03T03:44:06.785Z,75381.69
2022-10-03T03:46:38.793Z,75383.75
2022-10-03T03:49:24.698Z,75379.63
2022-10-03T03:52:12.376Z,75371.41
2022-10-03T03:54:45.321Z,75381.69
2022-10-03T03:57:16.143Z,75383.75
2022-10-03T03:59:50.222Z,75383.75
2022-10-03T04:02:20.465Z,75383.75
2022-10-03T04:05:07.980Z,75385.81
2022-10-03T04:07:49.275Z,75383.75
2022-10-03T04:10:20.913Z,75381.69
2022-10-03T04:12:48.695Z,75385.81
2022-10-03T04:15:35.523Z,75394.03
2022-10-03T04:18:40.480Z,75400.19
2022-10-03T04:21:19.074Z,75404.28
2022-10-03T04:24:04.933Z,75404.28
2022-10-03T04:26:52.015Z,75404.28
2022-10-03T04:29:25.045Z,75408.41
2022-10-03T04:31:52.099Z,75389.91
2022-10-03T04:34:23.353Z,75408.41
2022-10-03T04:37:06.126Z,75414.56
2022-10-03T04:39:51.385Z,75424.84
2022-10-03T04:42:19.347Z,75408.41
2022-10-03T04:44:56.322Z,75394.03
2022-10-03T04:47:27.585Z,75396.06
2022-10-03T04:49:57.716Z,75404.28
2022-10-03T04:52:39.405Z,75418.69
2022-10-03T04:55:25.268Z,75414.56
2022-10-03T04:58:05.250Z,75422.78
2022-10-03T05:00:52.948Z,75420.72
2022-10-03T05:03:36.885Z,75414.56
2022-10-03T05:06:20.424Z,75420.72
2022-10-03T05:08:52.595Z,75431.00
2022-10-03T05:11:19.705Z,75439.22
2022-10-03T05:13:59.896Z,75449.50
2022-10-03T05:16:33.460Z,75445.41
2022-10-03T05:19:19.614Z,75435.13
2022-10-03T05:21:56.511Z,75433.06
2022-10-03T05:24:31.397Z,75420.72
2022-10-03T05:27:13.801Z,75412.53
2022-10-03T05:29:45.986Z,75391.97
2022-10-03T05:32:22.856Z,75387.84
2022-10-03T05:35:03.393Z,75379.63
2022-10-03T05:37:48.840Z,75396.06
2022-10-03T05:40:25.456Z,75365.25
2022-10-03T05:42:56.086Z,75350.88
2022-10-03T05:45:24.438Z,75348.81
2022-10-03T05:47:57.954Z,75338.53
2022-10-03T05:50:36.507Z,75322.09
2022-10-03T05:53:36.200Z,75309.78
2022-10-03T05:56:03.294Z,75313.88
2022-10-03T05:58:37.184Z,75307.72
2022-10-03T06:01:07.156Z,75276.91
2022-10-03T06:03:37.882Z,75289.22
2022-10-03T06:06:09.072Z,75295.38
2022-10-03T06:08:56.185Z,75301.56
2022-10-03T06:11:42.377Z,75283.06
2022-10-03T06:14:18.645Z,75281.00
2022-10-03T06:17:04.935Z,75276.91
2022-10-03T06:19:51.007Z,75264.56
2022-10-03T06:22:21.350Z,75264.56
2022-10-03T06:25:00.063Z,75264.56
2022-10-03T06:27:46.010Z,75252.22
2022-10-03T06:30:48.582Z,75194.69
2022-10-03T06:33:25.606Z,75207.03
2022-10-03T06:36:10.969Z,75190.59
2022-10-03T06:38:56.529Z,75186.47
2022-10-03T06:41:42.993Z,75161.81
2022-10-03T06:44:41.154Z,75149.50
2022-10-03T06:47:20.424Z,75170.03
2022-10-03T06:50:06.704Z,75174.16
2022-10-03T06:52:52.488Z,75145.38
2022-10-03T06:55:38.016Z,75124.84
2022-10-03T06:58:07.775Z,75091.97
2022-10-03T07:00:54.513Z,75091.97
2022-10-03T07:03:21.747Z,75087.84
2022-10-03T07:06:01.333Z,75061.13
2022-10-03T07:08:31.089Z,75116.63
2022-10-03T07:11:00.887Z,75128.94
2022-10-03T07:13:40.236Z,75143.31
2022-10-03T07:16:26.390Z,75149.50
2022-10-03T07:18:58.900Z,75141.28
2022-10-03T07:21:44.219Z,75124.84
2022-10-03T07:24:11.334Z,75133.06
2022-10-03T07:26:39.621Z,75112.50
2022-10-03T07:29:06.696Z,75038.53
2022-10-03T07:31:44.145Z,75116.63
2022-10-03T07:34:14.282Z,75124.84
2022-10-03T07:37:06.976Z,75013.88
2022-10-03T07:39:34.079Z,75050.88
2022-10-03T07:42:17.502Z,75116.63
2022-10-03T07:45:03.450Z,75122.78
2022-10-03T07:47:49.351Z,75124.84
2022-10-03T07:50:18.637Z,75073.47
2022-10-03T07:52:48.570Z,75017.97
2022-10-03T07:55:18.365Z,74870.03
2022-10-03T07:57:57.094Z,74954.28
2022-10-03T08:00:47.592Z,74976.88
2022-10-03T08:03:17.817Z,74976.88
2022-10-03T08:06:03.618Z,75030.31
2022-10-03T08:08:50.524Z,75054.97
2022-10-03T08:11:37.003Z,75091.97
2022-10-03T08:14:13.487Z,75128.94
2022-10-03T08:16:46.576Z,75133.06
2022-10-03T08:19:19.528Z,75059.06
2022-10-03T08:21:46.521Z,75071.41
2022-10-03T08:24:17.721Z,75038.53
2022-10-03T08:26:47.893Z,74999.50
2022-10-03T08:29:24.054Z,74870.03
2022-10-03T08:32:06.252Z,74970.72
2022-10-03T08:34:42.290Z,75026.19
2022-10-03T08:37:15.482Z,75067.28
2022-10-03T08:39:45.415Z,75038.53
2022-10-03T08:42:31.006Z,75001.53
2022-10-03T08:45:10.237Z,74711.84
2022-10-03T08:47:46.973Z,74664.59
2022-10-03T08:50:34.304Z,74913.19
2022-10-03T08:53:04.366Z,74987.16
2022-10-03T08:55:32.435Z,74933.75
2022-10-03T08:58:05.489Z,74952.22
2022-10-03T09:00:52.756Z,75009.75
2022-10-03T09:03:34.237Z,75028.25
2022-10-03T09:06:13.400Z,75026.19
2022-10-03T09:08:59.358Z,75036.47
2022-10-03T09:11:38.775Z,75048.81
2022-10-03T09:14:12.024Z,75061.13
2022-10-03T09:16:48.283Z,75075.53
2022-10-03T09:19:21.581Z,74939.91
2022-10-03T09:21:51.406Z,74995.38
2022-10-03T09:24:31.641Z,75024.16
2022-10-03T09:27:04.750Z,74874.16
2022-10-03T09:29:34.982Z,74882.38
2022-10-03T09:32:20.695Z,74933.75
2022-10-03T09:35:07.478Z,74991.28
2022-10-03T09:37:38.209Z,74915.25
2022-10-03T09:40:08.093Z,74500.22
2022-10-03T09:42:54.398Z,74430.38
2022-10-03T09:45:21.840Z,74420.09
2022-10-03T09:48:07.688Z,74549.53
2022-10-03T09:50:47.061Z,74492.00
2022-10-03T09:53:27.477Z,74557.75
2022-10-03T09:56:13.223Z,74524.88
2022-10-03T09:58:43.059Z,74463.25
2022-10-03T10:01:10.131Z,74459.16
2022-10-03T10:03:43.787Z,74270.16
2022-10-03T10:06:14.144Z,74553.66
2022-10-03T10:08:51.285Z,74767.31
2022-10-03T10:11:32.874Z,74722.13
2022-10-03T10:14:21.733Z,74455.03
2022-10-03T10:17:10.728Z,74545.44
2022-10-03T10:19:37.980Z,74553.66
2022-10-03T10:22:24.899Z,74422.16
2022-10-03T10:25:07.277Z,74393.41
2022-10-03T10:27:35.176Z,74738.56
2022-10-03T10:30:21.305Z,74820.75
2022-10-03T10:32:48.337Z,74845.38
2022-10-03T10:35:30.546Z,74642.00
2022-10-03T10:38:15.347Z,74487.91
2022-10-03T10:40:48.527Z,74323.56
2022-10-03T10:43:15.887Z,74434.50
2022-10-03T10:46:01.693Z,74605.00
2022-10-03T10:48:47.393Z,74492.00
2022-10-03T10:51:47.234Z,74537.22
2022-10-03T10:54:14.223Z,74674.84
2022-10-03T10:56:43.033Z,74537.22
2022-10-03T10:59:29.434Z,74607.06
2022-10-03T11:02:17.188Z,74666.66
2022-10-03T11:04:44.225Z,74656.38
2022-10-03T11:07:14.526Z,74639.94
2022-10-03T11:10:00.241Z,74650.22
2022-10-03T11:12:39.339Z,74607.06
2022-10-03T11:15:25.112Z,74594.75
2022-10-03T11:17:54.975Z,74746.78
2022-10-03T11:20:41.671Z,74824.84
2022-10-03T11:23:27.228Z,74886.47
2022-10-03T11:26:12.895Z,74865.94
2022-10-03T11:28:40.322Z,74845.38
2022-10-03T11:31:16.284Z,74789.91
2022-10-03T11:34:02.316Z,74824.84
2022-10-03T11:36:48.492Z,74898.81
2022-10-03T11:39:21.294Z,74894.69
2022-10-03T11:42:06.640Z,74798.13
2022-10-03T11:44:37.886Z,74837.16
2022-10-03T11:47:21.069Z,74755.00
2022-10-03T11:49:51.257Z,74785.81
2022-10-03T11:52:34.857Z,74861.81
2022-10-03T11:55:20.959Z,74750.88
2022-10-03T11:57:51.777Z,74755.00
2022-10-03T12:00:23.297Z,74808.41
2022-10-03T12:03:09.474Z,74804.31
2022-10-03T12:05:53.010Z,74882.38
2022-10-03T12:08:40.981Z,74833.06
2022-10-03T12:11:11.458Z,74863.88
2022-10-03T12:13:41.545Z,74724.16
2022-10-03T12:16:25.862Z,74734.44
2022-10-03T12:18:54.748Z,74705.69
2022-10-03T12:21:37.499Z,74639.94
2022-10-03T12:24:14.337Z,74590.63
2022-10-03T12:26:44.101Z,74642.00
2022-10-03T12:29:14.369Z,74664.59
2022-10-03T12:31:43.142Z,74644.03
2022-10-03T12:34:29.619Z,74535.16
2022-10-03T12:36:56.644Z,74512.56
2022-10-03T12:39:42.162Z,74502.28
2022-10-03T12:42:09.859Z,74483.78
2022-10-03T12:44:46.302Z,74450.94
2022-10-03T12:47:51.102Z,74420.09
2022-10-03T12:50:14.529Z,74465.31
2022-10-03T12:52:47.079Z,74479.69
2022-10-03T12:55:20.546Z,74496.13
2022-10-03T12:57:55.151Z,74537.22
2022-10-03T13:00:24.023Z,74496.13
2022-10-03T13:03:03.422Z,74492.00
2022-10-03T13:05:30.630Z,74434.50
2022-10-03T13:08:06.884Z,74399.56
2022-10-03T13:10:50.970Z,74545.44
2022-10-03T13:13:18.026Z,74512.56
2022-10-03T13:16:05.970Z,74473.53
2022-10-03T13:18:36.252Z,74529.00
2022-10-03T13:21:03.323Z,74621.44
2022-10-03T13:23:32.184Z,74609.13
2022-10-03T13:26:00.037Z,74561.88
2022-10-03T13:28:31.476Z,74541.31
2022-10-03T13:31:01.685Z,74619.38
2022-10-03T13:33:29.522Z,74574.19
2022-10-03T13:36:02.621Z,74578.31
2022-10-03T13:38:46.222Z,74598.84
2022-10-03T13:41:13.332Z,74619.38
2022-10-03T13:43:42.137Z,74635.81
2022-10-03T13:46:29.399Z,74557.75
2022-10-03T13:49:01.753Z,74545.44
2022-10-03T13:51:35.001Z,74578.31
2022-10-03T13:54:09.209Z,74635.81
2022-10-03T13:56:44.002Z,74611.16
2022-10-03T13:59:10.999Z,74559.81
2022-10-03T14:01:59.684Z,74500.22
2022-10-03T14:04:42.403Z,74578.31
2022-10-03T14:07:25.195Z,74574.19
2022-10-03T14:10:00.464Z,74623.50
2022-10-03T14:12:51.209Z,74594.75
2022-10-03T14:15:18.601Z,74570.09
2022-10-03T14:17:50.994Z,74553.66
2022-10-03T14:20:37.219Z,74574.19
2022-10-03T14:23:16.246Z,74662.53
2022-10-03T14:25:56.461Z,74631.72
2022-10-03T14:28:42.378Z,74652.25
2022-10-03T14:31:09.551Z,74701.56
2022-10-03T14:33:46.897Z,74713.91
2022-10-03T14:36:16.789Z,74750.88
2022-10-03T14:39:00.708Z,74785.81
2022-10-03T14:41:35.670Z,74874.16
2022-10-03T14:44:29.129Z,74911.13
2022-10-03T14:47:01.117Z,74923.47
2022-10-03T14:49:53.542Z,74974.84
2022-10-03T14:52:20.207Z,75003.59
2022-10-03T14:54:50.521Z,75017.97
2022-10-03T14:57:23.852Z,75024.16
2022-10-03T14:59:53.273Z,75042.66
2022-10-03T15:02:38.813Z,75044.69
2022-10-03T15:05:11.387Z,75069.34
2022-10-03T15:07:39.226Z,75079.63
2022-10-03T15:10:09.283Z,75100.19
2022-10-03T15:12:36.851Z,75100.19
2022-10-03T15:15:24.718Z,75114.56
2022-10-03T15:17:53.442Z,75137.16
2022-10-03T15:20:24.291Z,75141.28
2022-10-03T15:22:52.203Z,75141.28
2022-10-03T15:25:41.792Z,75149.50
2022-10-03T15:28:09.550Z,75145.38
2022-10-03T15:30:37.754Z,75145.38
2022-10-03T15:33:11.137Z,75161.81
2022-10-03T15:35:41.588Z,75165.94
2022-10-03T15:38:16.830Z,75174.16
2022-10-03T15:41:07.156Z,75182.38
2022-10-03T15:43:38.231Z,75192.63
2022-10-03T15:46:25.826Z,75198.81
2022-10-03T15:48:53.122Z,75194.69
2022-10-03T15:51:20.175Z,75207.03
2022-10-03T15:53:48.122Z,75219.34
2022-10-03T15:56:35.514Z,75231.69
2022-10-03T15:59:04.506Z,75235.78
2022-10-03T16:01:42.070Z,75237.84
2022-10-03T16:04:19.003Z,75248.13
2022-10-03T16:06:47.784Z,75254.28
2022-10-03T16:09:17.852Z,75268.66
2022-10-03T16:11:45.429Z,75278.94
2022-10-03T16:14:15.373Z,75289.22
2022-10-03T16:16:47.323Z,75295.38
2022-10-03T16:19:31.395Z,75305.66
2022-10-03T16:22:12.767Z,75309.78
2022-10-03T16:24:46.010Z,75318.00
2022-10-03T16:27:25.950Z,75313.88
2022-10-03T16:29:54.302Z,75318.00
2022-10-03T16:32:24.893Z,75313.88
2022-10-03T16:34:51.937Z,75311.81
2022-10-03T16:37:23.825Z,75305.66
2022-10-03T16:39:53.192Z,75313.88
2022-10-03T16:42:21.465Z,75322.09
2022-10-03T16:44:48.526Z,75334.44
2022-10-03T16:47:16.128Z,75334.44
2022-10-03T16:50:04.909Z,75340.59
2022-10-03T16:52:35.122Z,75340.59
2022-10-03T16:55:05.170Z,75354.97
2022-10-03T16:57:36.211Z,75346.75
2022-10-03T17:00:05.967Z,75354.97
2022-10-03T17:02:33.357Z,75363.19
2022-10-03T17:05:02.485Z,75363.19
2022-10-03T17:07:37.236Z,75375.53
2022-10-03T17:10:04.445Z,75375.53
2022-10-03T17:12:37.230Z,75379.63
2022-10-03T17:15:05.497Z,75387.84
2022-10-03T17:17:34.374Z,75383.75
2022-10-03T17:20:05.505Z,75391.97
2022-10-03T17:22:41.339Z,75396.06
2022-10-03T17:25:29.074Z,75396.06
2022-10-03T17:27:56.366Z,75398.13
2022-10-03T17:30:26.539Z,75394.03
2022-10-03T17:32:56.585Z,75404.28
2022-10-03T17:35:28.334Z,75400.19
2022-10-03T17:38:30.593Z,75404.28
2022-10-03T17:41:14.897Z,75404.28
2022-10-03T17:44:01.491Z,75400.19
2022-10-03T17:46:34.496Z,75396.06
2022-10-03T17:49:06.151Z,75400.19
2022-10-03T17:51:41.953Z,75404.28
2022-10-03T17:54:10.926Z,75408.41
2022-10-03T17:56:38.199Z,75406.34
2022-10-03T17:59:06.796Z,75414.56
2022-10-03T18:01:37.413Z,75408.41
2022-10-03T18:04:06.279Z,75414.56
2022-10-03T18:06:35.467Z,75416.63
2022-10-03T18:09:07.774Z,75408.41
2022-10-03T18:11:35.281Z,75412.53
2022-10-03T18:14:05.530Z,75406.34
2022-10-03T18:16:35.130Z,75400.19
2022-10-03T18:19:08.747Z,75408.41
2022-10-03T18:21:54.499Z,75410.47
2022-10-03T18:24:21.493Z,75412.53
2022-10-03T18:26:49.613Z,75412.53
2022-10-03T18:29:16.722Z,75420.72
2022-10-03T18:31:45.382Z,75420.72
2022-10-03T18:34:19.950Z,75410.47
2022-10-03T18:36:48.236Z,75428.97
2022-10-03T18:39:28.439Z,75428.97
2022-10-03T18:41:58.637Z,75439.22
2022-10-03T18:44:27.101Z,75437.19
2022-10-03T18:47:04.960Z,75441.28
2022-10-03T18:49:35.161Z,75441.28
2022-10-03T18:52:10.776Z,75441.28
2022-10-03T18:54:51.202Z,75445.41
2022-10-03T18:57:27.377Z,75445.41
2022-10-03T19:00:05.977Z,75449.50
2022-10-03T19:02:47.038Z,75449.50
2022-10-03T19:05:40.274Z,75453.63
2022-10-03T19:08:36.879Z,75461.84
2022-10-03T19:11:23.401Z,75465.94
2022-10-03T19:13:56.927Z,75459.78
2022-10-03T19:16:28.453Z,75461.84
2022-10-03T19:19:03.526Z,75457.72
2022-10-03T19:21:35.908Z,75461.84
2022-10-03T19:24:05.693Z,75463.88
2022-10-03T19:26:35.975Z,75461.84
2022-10-03T19:29:04.446Z,75465.94
2022-10-03T19:31:34.742Z,75453.63
2022-10-03T19:34:05.936Z,75457.72
2022-10-03T19:36:34.854Z,75457.72
2022-10-03T19:39:02.541Z,75449.50
2022-10-03T19:41:29.682Z,75449.50
2022-10-03T19:44:00.276Z,75441.28
2022-10-03T19:46:35.131Z,75431.00
2022-10-03T19:49:05.079Z,75433.06
2022-10-03T19:51:32.431Z,75437.19
2022-10-03T19:54:00.107Z,75433.06
2022-10-03T19:56:27.764Z,75433.06
2022-10-03T19:59:13.897Z,75433.06
2022-10-03T20:01:44.606Z,75428.97
2022-10-03T20:04:12.870Z,75428.97
2022-10-03T20:06:45.815Z,75441.28
2022-10-03T20:09:23.269Z,75439.22
2022-10-03T20:11:52.347Z,75441.28
2022-10-03T20:14:23.634Z,75441.28
2022-10-03T20:16:53.578Z,75453.63
2022-10-03T20:19:22.457Z,75449.50
2022-10-03T20:21:54.292Z,75457.72
2022-10-03T20:24:26.896Z,75457.72
2022-10-03T20:27:00.108Z,75445.41
2022-10-03T20:29:31.241Z,75457.72
2022-10-03T20:32:01.576Z,75461.84
2022-10-03T20:34:29.574Z,75453.63
2022-10-03T20:37:08.910Z,75453.63
2022-10-03T20:39:36.529Z,75457.72
2022-10-03T20:42:08.067Z,75449.50
2022-10-03T20:44:55.503Z,75459.78
2022-10-03T20:47:28.355Z,75445.41
2022-10-03T20:49:59.009Z,75445.41
2022-10-03T20:52:26.120Z,75453.63
2022-10-03T20:54:53.766Z,75443.34
2022-10-03T20:57:20.785Z,75453.63
2022-10-03T20:59:56.916Z,75455.66
2022-10-03T21:02:28.700Z,75455.66
2022-10-03T21:04:56.082Z,75461.84
2022-10-03T21:07:27.990Z,75459.78
2022-10-03T21:09:55.167Z,75453.63
2022-10-03T21:12:24.882Z,75455.66
2022-10-03T21:14:53.030Z,75465.94
2022-10-03T21:17:20.203Z,75461.84
2022-10-03T21:20:01.366Z,75470.06
2022-10-03T21:22:28.388Z,75476.22
2022-10-03T21:24:56.956Z,75470.06
2022-10-03T21:27:24.017Z,75468.00
2022-10-03T21:29:54.906Z,75472.13
2022-10-03T21:32:40.731Z,75470.06
2022-10-03T21:35:16.708Z,75474.16
2022-10-03T21:37:46.471Z,75478.28
2022-10-03T21:40:16.388Z,75482.38
2022-10-03T21:42:58.611Z,75486.50
2022-10-03T21:45:25.642Z,75478.28
2022-10-03T21:47:59.817Z,75474.16
2022-10-03T21:50:30.643Z,75490.59
2022-10-03T21:53:06.832Z,75486.50
2022-10-03T21:55:52.550Z,75488.56
2022-10-03T21:58:29.374Z,75490.59
2022-10-03T22:00:56.786Z,75488.56
2022-10-03T22:03:25.366Z,75492.66
2022-10-03T22:05:52.386Z,75494.72
2022-10-03T22:08:22.724Z,75490.59
2022-10-03T22:10:57.216Z,75498.81
2022-10-03T22:13:24.473Z,75507.03
2022-10-03T22:15:53.752Z,75502.94
2022-10-03T22:18:20.861Z,75521.44
2022-10-03T22:20:56.781Z,75515.25
2022-10-03T22:23:39.779Z,75523.50
2022-10-03T22:26:18.295Z,75523.50
2022-10-03T22:28:57.837Z,75533.75
2022-10-03T22:31:33.943Z,75537.88
2022-10-03T22:34:11.824Z,75535.81
2022-10-03T22:36:38.915Z,75539.94
2022-10-03T22:39:09.695Z,75548.16
2022-10-03T22:41:36.903Z,75554.31
2022-10-03T22:44:05.466Z,75560.47
2022-10-03T22:46:33.004Z,75568.69
2022-10-03T22:49:08.273Z,75576.91
2022-10-03T22:51:35.543Z,75581.03
2022-10-03T22:54:04.497Z,75581.03
2022-10-03T22:56:45.316Z,75589.25
2022-10-03T22:59:18.348Z,75593.34
2022-10-03T23:01:46.276Z,75591.31
2022-10-03T23:04:16.482Z,75597.47
2022-10-03T23:06:49.376Z,75607.75
2022-10-03T23:09:25.599Z,75609.81
2022-10-03T23:11:53.448Z,75618.03
2022-10-03T23:14:20.814Z,75620.06
2022-10-03T23:17:06.090Z,75628.28
2022-10-03T23:19:48.732Z,75626.25
2022-10-03T23:22:17.360Z,75634.47
2022-10-03T23:24:46.000Z,75634.47
2022-10-03T23:27:32.131Z,75632.41
2022-10-03T23:30:25.230Z,75644.75
2022-10-03T23:32:54.375Z,75642.69
2022-10-03T23:35:27.654Z,75652.97
2022-10-03T23:37:54.671Z,75657.06
2022-10-03T23:40:27.972Z,75661.19
2022-10-03T23:43:04.194Z,75663.22
2022-10-03T23:45:33.102Z,75671.44
2022-10-03T23:48:07.408Z,75679.69
2022-10-03T23:50:39.760Z,75696.13
2022-10-03T23:53:07.235Z,75696.13
2022-10-03T23:55:36.185Z,75692.00
2022-10-03T23:58:03.408Z,75685.84
